Letourneau, Mississippi
Current Conditions -  °F | °C
As of 6:15 PM on Wednesday 26 Nov 2014 (Local Time) from KVKS Reporting Station
Clear Clear  
Wind Chill: 61°   Ceiling: Unl
Heat Index: 61°   Visibility: 10mi
Dew Point: 37°   Wind: 5mph
Humidity: 42%   Direction: 250°WSW
Pressure: 30.13"   Gusts: NA
Location:  32.3914°N, 90.8257°W
Report Text: KVKS 270015Z AUTO 25004KT 10SM CLR 16/03 A3013 RMK A01
Loading
Personal Weather Stations






























Interactive Weather Map New forecast layout! Learn more

10-Day Weather Forecast

Advertisements
Track Severe Weather on mobile